Time;durP1;ratioP1;P1;durP2;ratioP2;P2;SDS_P1;SDS_P2;PMS_P1;PMS_P2;Temp;Humidity;BMP_temperature;BMP_pressure;BME280_temperature;BME280_humidity;BME280_pressure;Samples;Min_cycle;Max_cycle;Signal;HPM_P1;HPM_P2
2022/08/09 00:01:58;;;;;;;5.18;3.13;;;;;;;26.56;41.84;102871.22;5093876;28;20031;-76
2022/08/09 00:04:23;;;;;;;6.68;3.30;;;;;;;26.02;43.18;102875.41;5110055;28;20030;-76
2022/08/09 00:06:49;;;;;;;5.40;3.88;;;;;;;26.51;42.34;102873.22;5084775;28;20472;-76
2022/08/09 00:09:16;;;;;;;7.47;3.80;;;;;;;26.44;42.35;102877.13;5075405;28;20201;-76
2022/08/09 00:11:42;;;;;;;5.18;3.40;;;;;;;25.81;43.78;102872.69;5103495;28;20032;-76
2022/08/09 00:14:07;;;;;;;6.18;3.40;;;;;;;26.04;43.15;102873.56;5075025;28;20027;-76
2022/08/09 00:16:33;;;;;;;6.40;3.85;;;;;;;26.63;41.88;102878.97;5082768;28;20031;-76
2022/08/09 00:18:59;;;;;;;4.13;3.33;;;;;;;26.70;41.63;102875.09;5072957;28;20502;-76
2022/08/09 00:21:25;;;;;;;8.35;3.90;;;;;;;27.03;41.13;102874.44;5073454;28;20172;-76
2022/08/09 00:23:50;;;;;;;8.23;3.58;;;;;;;27.05;40.90;102883.28;5089833;28;20059;-76
2022/08/09 00:26:16;;;;;;;7.05;3.95;;;;;;;27.03;40.80;102875.31;5095585;28;20035;-76
2022/08/09 00:28:41;;;;;;;5.75;4.28;;;;;;;26.92;41.47;102873.13;5073345;28;20048;-76
2022/08/09 00:31:07;;;;;;;8.05;4.05;;;;;;;27.17;40.45;102866.59;5091402;28;20031;-76
2022/08/09 00:33:34;;;;;;;6.95;3.60;;;;;;;27.17;40.89;102876.47;5072887;28;20072;-76
2022/08/09 00:36:00;;;;;;;6.22;4.30;;;;;;;27.06;41.11;102879.66;5101384;28;20395;-77
2022/08/09 00:38:25;;;;;;;4.53;3.17;;;;;;;26.77;41.73;102873.00;5073599;28;20024;-76
2022/08/09 00:40:52;;;;;;;8.65;4.25;;;;;;;26.81;41.68;102866.56;5073605;28;20012;-76
2022/08/09 00:43:18;;;;;;;4.18;3.35;;;;;;;26.99;41.34;102871.03;5076748;28;20119;-77
2022/08/09 00:45:44;;;;;;;7.95;4.30;;;;;;;27.02;41.27;102878.06;5107889;28;20075;-76
2022/08/09 00:48:10;;;;;;;5.88;3.90;;;;;;;27.51;40.08;102875.69;5089774;28;20479;-76
2022/08/09 00:50:35;;;;;;;7.13;4.35;;;;;;;26.31;42.87;102870.56;5080613;28;20027;-76
2022/08/09 00:53:01;;;;;;;6.40;4.15;;;;;;;27.01;41.15;102870.97;5097032;28;20023;-76
2022/08/09 00:55:26;;;;;;;10.95;4.18;;;;;;;26.65;42.06;102866.34;5084918;28;20058;-76
2022/08/09 00:57:52;;;;;;;8.38;4.93;;;;;;;26.61;42.31;102867.44;5078170;28;20028;-76
2022/08/09 01:00:17;;;;;;;6.05;4.40;;;;;;;26.33;42.96;102874.06;5096381;28;20055;-77
2022/08/09 01:03:07;;;;;;;4.53;3.67;;;;;;;26.78;41.83;102875.63;5095565;28;20165;-76
2022/08/09 01:05:54;;;;;;;8.25;4.38;;;;;;;26.32;43.26;102869.63;5082858;28;20028;-76
2022/08/09 01:08:25;;;;;;;7.40;4.90;;;;;;;25.68;44.15;102876.84;5096597;28;20023;-77
2022/08/09 01:11:01;;;;;;;8.90;4.88;;;;;;;26.45;42.76;102878.88;5081891;28;20084;-76
2022/08/09 01:13:49;;;;;;;6.95;4.78;;;;;;;26.91;41.58;102865.16;5077774;28;20055;-76
2022/08/09 01:16:19;;;;;;;9.00;4.70;;;;;;;27.16;41.37;102874.72;5074690;28;20119;-76
2022/08/09 01:18:47;;;;;;;9.85;5.00;;;;;;;26.07;43.50;102878.75;5076542;28;20484;-77
2022/08/09 01:21:26;;;;;;;6.97;4.68;;;;;;;25.81;44.18;102883.41;5081009;28;20076;-76
2022/08/09 01:24:29;;;;;;;5.90;4.60;;;;;;;25.88;44.46;102873.31;5097011;28;20019;-76
2022/08/09 01:27:09;;;;;;;6.40;4.72;;;;;;;26.20;43.34;102879.09;5092774;28;20078;-76
2022/08/09 01:29:48;;;;;;;8.35;5.30;;;;;;;26.61;42.78;102880.84;5075669;28;20106;-76
2022/08/09 01:32:17;;;;;;;10.23;5.57;;;;;;;26.39;42.79;102884.50;5090072;28;20073;-76
2022/08/09 01:34:44;;;;;;;6.72;5.25;;;;;;;25.65;44.70;102876.94;5089836;28;20123;-76
2022/08/09 01:37:13;;;;;;;10.15;5.18;;;;;;;25.88;44.61;102878.66;5093831;28;20038;-76
2022/08/09 01:39:42;;;;;;;7.60;4.85;;;;;;;26.39;43.31;102879.13;5111797;28;20031;-76
2022/08/09 01:42:07;;;;;;;6.07;4.75;;;;;;;26.00;43.50;102878.13;5106209;28;20023;-76
2022/08/09 01:44:34;;;;;;;6.95;4.60;;;;;;;26.92;41.52;102875.81;5111892;28;20394;-76
2022/08/09 01:47:01;;;;;;;7.40;5.25;;;;;;;26.44;42.28;102871.75;5096104;28;20429;-77
2022/08/09 01:49:29;;;;;;;5.85;4.55;;;;;;;26.27;42.96;102871.66;5095424;28;20299;-76
2022/08/09 01:51:56;;;;;;;8.80;5.15;;;;;;;26.43;42.60;102880.75;5093071;28;20372;-76
2022/08/09 01:54:26;;;;;;;7.00;4.30;;;;;;;26.72;42.09;102881.25;5092002;28;20148;-76
2022/08/09 01:56:54;;;;;;;9.02;4.90;;;;;;;26.90;41.75;102879.50;5093020;28;20568;-76
2022/08/09 01:59:21;;;;;;;5.50;4.35;;;;;;;26.86;41.61;102877.91;5096197;28;20067;-76
2022/08/09 02:01:52;;;;;;;4.85;4.30;;;;;;;27.09;41.18;102879.50;5085302;28;20035;-76
2022/08/09 02:04:20;;;;;;;5.80;5.15;;;;;;;26.90;41.61;102869.66;5073837;28;20114;-76
2022/08/09 02:09:36;;;;;;;6.35;4.63;;;;;;;26.98;41.26;102871.09;5092800;28;20472;-76
2022/08/09 02:12:04;;;;;;;6.70;4.60;;;;;;;27.11;40.71;102877.63;5102536;28;20036;-76
2022/08/09 02:14:30;;;;;;;4.95;4.30;;;;;;;27.12;40.59;102874.00;5078021;28;20555;-76
2022/08/09 02:16:57;;;;;;;5.55;4.38;;;;;;;27.04;40.92;102876.19;5095407;28;20118;-76
2022/08/09 02:19:23;;;;;;;5.82;4.18;;;;;;;26.41;42.32;102871.91;5094999;28;20024;-76
2022/08/09 02:21:53;;;;;;;7.85;4.70;;;;;;;26.69;41.65;102874.19;5103495;28;20035;-76
2022/08/09 02:24:23;;;;;;;8.68;5.05;;;;;;;26.38;42.65;102878.28;5076161;28;20064;-76
2022/08/09 02:26:52;;;;;;;11.75;4.85;;;;;;;26.74;41.65;102874.88;5094032;28;20612;-76
2022/08/09 02:29:22;;;;;;;6.78;5.40;;;;;;;25.96;42.71;102876.50;5095160;28;20026;-76
2022/08/09 02:31:50;;;;;;;5.70;4.80;;;;;;;26.19;42.71;102875.53;5093277;28;20031;-77
2022/08/09 02:34:27;;;;;;;9.07;5.32;;;;;;;26.56;41.76;102876.56;5111760;28;20034;-76
2022/08/09 02:36:55;;;;;;;10.25;5.85;;;;;;;26.35;42.41;102878.44;5074789;28;20028;-76
2022/08/09 02:39:26;;;;;;;6.13;4.82;;;;;;;26.20;42.46;102874.63;5110105;28;20035;-76
2022/08/09 02:42:02;;;;;;;7.25;5.47;;;;;;;26.12;43.03;102860.69;5087064;28;20096;-76
2022/08/09 02:44:34;;;;;;;7.75;5.72;;;;;;;25.34;44.43;102870.19;5075471;28;20048;-76
2022/08/09 02:47:05;;;;;;;6.43;5.40;;;;;;;26.17;42.89;102871.19;5092535;28;20039;-76
2022/08/09 02:49:34;;;;;;;9.18;4.82;;;;;;;26.51;41.83;102870.53;5074510;28;20165;-76
2022/08/09 02:52:00;;;;;;;8.10;5.10;;;;;;;26.66;41.38;102862.75;5073744;28;20072;-76
2022/08/09 02:54:27;;;;;;;5.97;5.05;;;;;;;26.47;41.81;102866.25;5073415;28;20031;-76
2022/08/09 02:56:54;;;;;;;6.63;4.90;;;;;;;26.67;41.08;102856.44;5088810;28;20027;-76
2022/08/09 02:59:22;;;;;;;9.02;5.60;;;;;;;26.38;42.06;102853.28;5074300;28;20486;-76
2022/08/09 03:01:48;;;;;;;9.05;5.50;;;;;;;26.38;41.98;102861.34;5073587;28;20494;-76
2022/08/09 03:04:16;;;;;;;6.05;4.85;;;;;;;26.52;41.94;102852.66;5073872;28;20106;-76
2022/08/09 03:06:43;;;;;;;6.00;4.78;;;;;;;26.37;42.04;102844.38;5087499;28;20106;-76
2022/08/09 03:09:10;;;;;;;8.63;5.18;;;;;;;26.60;41.89;102839.78;5092910;28;20019;-76
2022/08/09 03:11:37;;;;;;;7.43;5.50;;;;;;;26.28;42.12;102844.78;5093280;28;20442;-76
2022/08/09 03:14:04;;;;;;;8.75;5.30;;;;;;;26.17;42.49;102842.59;5093647;28;20146;-76
2022/08/09 03:16:32;;;;;;;10.07;5.20;;;;;;;25.84;42.98;102851.16;5093029;28;20032;-76
2022/08/09 03:18:59;;;;;;;6.53;5.60;;;;;;;25.84;42.73;102844.91;5096087;28;20034;-76
2022/08/09 03:21:25;;;;;;;8.63;5.75;;;;;;;25.96;43.04;102862.25;5084101;28;20536;-76
2022/08/09 03:23:51;;;;;;;8.18;5.53;;;;;;;25.90;42.65;102860.72;5090326;28;20034;-76
2022/08/09 03:26:18;;;;;;;9.32;6.10;;;;;;;26.45;41.76;102867.25;5089406;28;20023;-76
2022/08/09 03:28:46;;;;;;;7.13;5.28;;;;;;;26.20;42.13;102861.22;5111900;28;20050;-76
2022/08/09 03:31:13;;;;;;;9.05;6.05;;;;;;;26.30;41.80;102855.44;5112596;28;20024;-76
2022/08/09 03:33:39;;;;;;;9.48;6.35;;;;;;;26.23;42.20;102858.41;5074232;28;20012;-76
2022/08/09 03:36:09;;;;;;;10.88;6.15;;;;;;;25.93;42.84;102859.72;5090979;28;20024;-76
2022/08/09 03:38:36;;;;;;;8.60;6.65;;;;;;;26.36;41.66;102860.53;5092090;28;20051;-76
2022/08/09 03:41:01;;;;;;;8.45;5.95;;;;;;;26.47;41.00;102860.03;5092680;28;20031;-76
2022/08/09 03:43:28;;;;;;;8.48;6.15;;;;;;;25.94;42.63;102866.81;5089460;28;20031;-76
2022/08/09 03:45:53;;;;;;;5.93;5.32;;;;;;;26.06;42.15;102859.16;5097219;28;20040;-76
2022/08/09 03:48:22;;;;;;;9.18;6.05;;;;;;;25.90;42.48;102861.59;5073824;28;20077;-76
2022/08/09 03:50:49;;;;;;;7.53;5.60;;;;;;;25.26;44.74;102869.59;5091362;28;20127;-76
2022/08/09 03:53:16;;;;;;;8.88;5.55;;;;;;;25.72;43.39;102873.09;5088735;28;20023;-76
2022/08/09 03:55:41;;;;;;;7.70;5.28;;;;;;;26.05;42.27;102872.63;5085714;28;20505;-76
2022/08/09 03:58:07;;;;;;;7.18;5.63;;;;;;;25.85;43.11;102874.28;5079194;28;20024;-76
2022/08/09 04:00:33;;;;;;;10.07;5.68;;;;;;;25.78;42.99;102870.16;5083030;28;20055;-76
2022/08/09 04:02:59;;;;;;;15.23;6.75;;;;;;;25.37;44.46;102883.44;5091886;28;20058;-77
2022/08/09 04:05:24;;;;;;;7.00;5.72;;;;;;;25.55;43.61;102882.72;5090022;28;20038;-77
2022/08/09 04:07:49;;;;;;;7.78;6.20;;;;;;;25.67;43.13;102881.31;5094481;28;20019;-77
2022/08/09 04:10:16;;;;;;;11.52;6.57;;;;;;;24.41;46.45;102887.03;5080853;28;20097;-77
2022/08/09 04:12:45;;;;;;;14.75;7.05;;;;;;;24.00;47.57;102881.34;5085444;28;20028;-77
2022/08/09 04:15:12;;;;;;;9.55;6.43;;;;;;;24.17;47.07;102892.31;5078896;28;20027;-77
2022/08/09 04:17:38;;;;;;;9.15;5.95;;;;;;;24.46;46.60;102885.06;5115600;28;20035;-77
2022/08/09 04:20:05;;;;;;;10.35;6.60;;;;;;;24.23;46.92;102888.56;5111110;28;20051;-77
2022/08/09 04:22:30;;;;;;;8.10;6.10;;;;;;;25.20;44.62;102893.00;5077075;28;20024;-77
2022/08/09 04:24:56;;;;;;;8.52;6.55;;;;;;;25.37;44.12;102888.81;5077351;28;20428;-77
2022/08/09 04:27:21;;;;;;;9.05;6.70;;;;;;;25.19;44.74;102904.63;5077430;28;20472;-77
2022/08/09 04:29:46;;;;;;;8.68;6.10;;;;;;;25.18;43.96;102910.94;5077258;28;20051;-77
2022/08/09 04:32:12;;;;;;;11.70;6.70;;;;;;;25.57;43.63;102899.56;5076390;28;20021;-77
2022/08/09 04:34:37;;;;;;;8.60;7.38;;;;;;;25.10;44.66;102921.06;5097177;28;20445;-77
2022/08/09 04:37:03;;;;;;;11.70;6.50;;;;;;;24.97;44.93;102917.97;5097752;28;20046;-77
2022/08/09 04:39:28;;;;;;;11.43;7.20;;;;;;;24.95;44.81;102924.28;5083252;28;20066;-77
2022/08/09 04:41:54;;;;;;;11.48;6.93;;;;;;;25.19;44.46;102923.34;5091586;28;20038;-77
2022/08/09 04:44:19;;;;;;;8.52;6.93;;;;;;;25.18;44.88;102921.63;5097630;28;20058;-77
2022/08/09 04:46:44;;;;;;;12.82;6.63;;;;;;;25.56;43.34;102911.19;5093126;28;20081;-77
2022/08/09 04:49:10;;;;;;;11.13;7.57;;;;;;;25.45;43.77;102916.13;5077184;28;20032;-77
2022/08/09 04:51:35;;;;;;;11.18;6.90;;;;;;;24.38;46.10;102919.22;5077162;28;20031;-77
2022/08/09 04:54:00;;;;;;;11.30;7.07;;;;;;;25.27;44.22;102919.53;5083148;28;20020;-77
2022/08/09 04:56:26;;;;;;;12.70;7.63;;;;;;;24.52;46.76;102921.38;5079179;28;20040;-77
2022/08/09 04:58:51;;;;;;;11.98;7.68;;;;;;;23.85;48.21;102930.78;5103791;28;20008;-77
2022/08/09 05:01:17;;;;;;;12.65;9.15;;;;;;;24.54;46.80;102925.75;5098259;28;20070;-76
2022/08/09 05:03:42;;;;;;;12.10;7.82;;;;;;;24.89;46.24;102920.94;5100538;28;20018;-77
2022/08/09 05:06:09;;;;;;;12.18;7.68;;;;;;;24.73;46.58;102927.78;5096615;28;20028;-77
2022/08/09 05:08:35;;;;;;;13.50;7.70;;;;;;;24.04;48.48;102920.38;5075583;28;20875;-77
2022/08/09 05:11:01;;;;;;;10.38;7.47;;;;;;;24.10;49.00;102936.22;5103199;28;20103;-77
2022/08/09 05:13:26;;;;;;;16.15;8.50;;;;;;;24.26;48.99;102931.19;5075569;28;20649;-77
2022/08/09 05:15:51;;;;;;;11.68;8.45;;;;;;;24.16;49.34;102919.09;5085120;28;20031;-77
2022/08/09 05:18:17;;;;;;;15.20;8.20;;;;;;;24.09;49.11;102923.78;5112158;28;20024;-76
2022/08/09 05:20:42;;;;;;;10.45;8.25;;;;;;;24.66;47.62;102928.94;5082359;28;20103;-77
2022/08/09 05:23:08;;;;;;;16.70;8.13;;;;;;;23.76;50.50;102931.97;5076041;28;20472;-77
2022/08/09 05:25:33;;;;;;;12.75;7.93;;;;;;;24.07;51.13;102933.66;5093786;28;20024;-77
2022/08/09 05:27:58;;;;;;;12.40;7.75;;;;;;;24.41;49.39;102929.78;5093631;28;20028;-77
2022/08/09 05:30:24;;;;;;;15.98;8.02;;;;;;;24.05;50.14;102932.81;5100575;28;20071;-76
2022/08/09 05:32:49;;;;;;;13.95;8.35;;;;;;;25.22;46.89;102933.94;5095957;28;20031;-77
2022/08/09 05:35:15;;;;;;;10.82;7.85;;;;;;;24.79;47.44;102930.22;5089827;28;20020;-77
2022/08/09 05:37:40;;;;;;;12.40;8.38;;;;;;;25.03;47.35;102932.91;5076090;28;20071;-77
2022/08/09 05:40:06;;;;;;;13.05;7.50;;;;;;;24.77;47.95;102926.75;5076997;28;20016;-76
2022/08/09 05:42:32;;;;;;;12.10;7.72;;;;;;;24.40;50.07;102936.09;5093262;28;20020;-77
2022/08/09 05:44:59;;;;;;;13.32;8.07;;;;;;;24.70;49.83;102935.91;5099260;28;20059;-77
2022/08/09 05:47:26;;;;;;;18.85;8.38;;;;;;;24.98;48.42;102933.09;5109535;28;20035;-77
2022/08/09 05:49:53;;;;;;;12.88;7.78;;;;;;;24.80;49.09;102945.34;5093386;28;20043;-77
2022/08/09 05:52:18;;;;;;;14.15;7.50;;;;;;;25.71;46.68;102935.63;5075738;28;20111;-77
2022/08/09 05:54:44;;;;;;;10.77;7.65;;;;;;;25.51;47.04;102940.00;5094896;28;20173;-77
2022/08/09 05:57:09;;;;;;;15.23;8.10;;;;;;;24.80;48.97;102948.03;5107610;28;20514;-77
2022/08/09 05:59:35;;;;;;;12.32;8.48;;;;;;;24.41;50.86;102953.84;5084892;28;20023;-77
2022/08/09 06:02:00;;;;;;;14.32;7.90;;;;;;;25.85;47.17;102951.97;5095773;28;20112;-77
2022/08/09 06:04:26;;;;;;;13.23;6.90;;;;;;;23.94;52.09;102959.03;5109688;28;20519;-77
2022/08/09 06:06:51;;;;;;;11.50;7.28;;;;;;;25.66;47.35;102956.34;5075642;28;20118;-77
2022/08/09 06:09:18;;;;;;;9.40;7.30;;;;;;;25.87;46.68;102947.44;5075351;28;20028;-77
2022/08/09 06:11:43;;;;;;;15.75;7.97;;;;;;;26.61;45.02;102953.25;5092762;28;20050;-77
2022/08/09 06:14:09;;;;;;;12.18;7.45;;;;;;;26.43;45.42;102953.13;5101481;28;20023;-77
2022/08/09 06:16:34;;;;;;;11.73;5.80;;;;;;;25.93;47.30;102950.81;5077591;28;20031;-77
2022/08/09 06:18:59;;;;;;;12.50;6.20;;;;;;;25.95;46.70;102949.78;5099082;28;20034;-77
2022/08/09 06:21:25;;;;;;;7.93;6.15;;;;;;;26.53;45.21;102957.16;5093341;28;20411;-77
2022/08/09 06:23:51;;;;;;;9.10;5.57;;;;;;;25.64;46.86;102955.56;5074877;28;20024;-77
2022/08/09 06:26:18;;;;;;;12.13;5.53;;;;;;;27.01;44.40;102955.03;5110721;28;20073;-77
2022/08/09 06:28:43;;;;;;;9.00;5.30;;;;;;;27.07;43.83;102961.91;5097705;28;20031;-77
2022/08/09 06:31:09;;;;;;;9.18;5.88;;;;;;;26.77;44.82;102965.06;5090334;28;20027;-77
2022/08/09 06:33:34;;;;;;;10.25;6.05;;;;;;;26.92;44.13;102964.34;5114032;28;20028;-77
2022/08/09 06:36:00;;;;;;;8.35;6.15;;;;;;;26.19;46.14;102963.97;5079477;28;20028;-77
2022/08/09 06:38:25;;;;;;;13.18;6.38;;;;;;;27.06;44.46;102962.84;5092265;28;20455;-77
2022/08/09 06:40:50;;;;;;;10.70;6.18;;;;;;;26.85;44.44;102973.63;5074499;28;20031;-77
2022/08/09 06:43:16;;;;;;;11.52;5.75;;;;;;;27.09;43.93;102970.75;5074988;28;20023;-78
2022/08/09 06:45:41;;;;;;;15.75;5.63;;;;;;;27.12;44.38;102973.31;5081958;28;20160;-77
2022/08/09 06:48:06;;;;;;;8.93;5.60;;;;;;;27.19;44.21;102964.03;5084641;28;20020;-77
2022/08/09 06:50:32;;;;;;;12.00;5.97;;;;;;;26.54;45.54;102969.63;5071425;28;20074;-77
2022/08/09 06:52:59;;;;;;;9.77;5.80;;;;;;;26.73;44.92;102979.56;5078040;28;20060;-77
2022/08/09 06:55:28;;;;;;;8.07;4.60;;;;;;;27.48;43.20;102972.53;5079173;28;20025;-77
2022/08/09 06:57:54;;;;;;;10.68;5.13;;;;;;;26.95;43.58;102979.44;5074237;28;20069;-77
2022/08/09 07:00:20;;;;;;;9.07;5.03;;;;;;;26.63;45.10;102983.56;5083024;28;20024;-77
2022/08/09 07:02:46;;;;;;;6.75;4.93;;;;;;;28.08;43.37;102987.50;5079438;28;20118;-77
2022/08/09 07:05:12;;;;;;;11.30;4.97;;;;;;;30.09;37.80;102982.00;5091202;28;20495;-77
2022/08/09 07:07:37;;;;;;;6.05;3.55;;;;;;;30.88;36.17;102986.16;5088112;28;20020;-76
2022/08/09 07:10:03;;;;;;;6.15;3.63;;;;;;;32.21;34.23;102987.47;5070947;28;20107;-77
2022/08/09 07:12:28;;;;;;;6.97;3.20;;;;;;;33.93;31.09;102985.00;5073736;28;20112;-77
2022/08/09 07:14:54;;;;;;;6.07;2.72;;;;;;;34.69;29.56;102980.97;5069821;28;20024;-77
2022/08/09 07:17:19;;;;;;;3.22;2.35;;;;;;;33.82;29.89;102995.81;5072043;28;20024;-78
2022/08/09 07:19:45;;;;;;;7.10;2.38;;;;;;;34.94;28.19;102988.03;5070709;28;20086;-77
2022/08/09 07:22:10;;;;;;;3.85;2.22;;;;;;;35.86;27.75;102995.00;5071092;28;20105;-77
2022/08/09 07:24:36;;;;;;;4.50;2.22;;;;;;;36.07;27.79;102995.03;5076789;28;20102;-77
2022/08/09 07:27:01;;;;;;;4.80;1.70;;;;;;;37.00;26.62;103001.41;5089634;28;20125;-77
2022/08/09 07:29:27;;;;;;;2.88;1.63;;;;;;;37.95;24.77;102999.13;5089583;28;20028;-78
2022/08/09 07:31:53;;;;;;;2.58;1.52;;;;;;;39.87;23.52;102992.19;5091002;28;20526;-77
2022/08/09 07:34:19;;;;;;;3.03;1.30;;;;;;;37.72;22.86;102993.09;5084752;28;20102;-78
2022/08/09 07:36:44;;;;;;;3.72;1.20;;;;;;;37.48;23.26;103000.72;5071937;28;20518;-78
2022/08/09 07:39:10;;;;;;;3.53;1.38;;;;;;;36.52;24.38;102989.31;5083896;28;20114;-78
2022/08/09 07:41:35;;;;;;;2.80;1.00;;;;;;;36.64;23.56;102992.78;5091496;28;20036;-77
2022/08/09 07:44:02;;;;;;;2.88;1.20;;;;;;;38.54;23.70;102988.97;5089955;28;20027;-78
2022/08/09 07:46:28;;;;;;;1.63;1.00;;;;;;;40.34;20.17;102982.78;5094377;28;20020;-78
2022/08/09 07:48:53;;;;;;;2.08;0.90;;;;;;;39.72;19.98;102982.81;5106429;28;20038;-77
2022/08/09 07:51:19;;;;;;;2.55;1.15;;;;;;;40.21;20.68;102983.22;5079966;28;20109;-78
2022/08/09 07:53:45;;;;;;;2.50;0.85;;;;;;;40.24;20.61;102982.88;5078719;28;20023;-78
2022/08/09 07:56:10;;;;;;;4.03;1.20;;;;;;;40.16;20.70;102980.97;5106855;28;20019;-78
2022/08/09 07:58:35;;;;;;;2.17;1.00;;;;;;;40.06;21.62;102984.84;5095846;28;20023;-78
2022/08/09 08:01:01;;;;;;;1.90;1.17;;;;;;;40.29;19.95;102986.00;5079636;28;20023;-77
2022/08/09 08:03:26;;;;;;;2.50;1.02;;;;;;;39.86;20.33;102976.81;5095365;28;20028;-78
2022/08/09 08:05:52;;;;;;;3.33;1.08;;;;;;;38.86;21.12;102971.31;5077152;28;20052;-78
2022/08/09 08:08:17;;;;;;;2.70;0.90;;;;;;;39.15;22.25;102986.72;5079591;28;20053;-78
2022/08/09 08:10:43;;;;;;;3.90;1.13;;;;;;;38.90;21.37;102983.66;5082431;28;20031;-77
2022/08/09 08:13:08;;;;;;;3.45;1.00;;;;;;;39.72;20.37;102982.81;5083430;28;20024;-78
2022/08/09 08:15:34;;;;;;;3.17;1.10;;;;;;;39.01;21.13;102979.84;5106480;28;20028;-77
2022/08/09 08:17:59;;;;;;;4.38;1.02;;;;;;;39.08;21.38;102991.03;5076500;28;20085;-77
2022/08/09 08:20:27;;;;;;;2.25;1.05;;;;;;;38.32;20.86;102993.78;5079615;28;20400;-78
2022/08/09 08:22:52;;;;;;;1.73;0.93;;;;;;;39.29;20.99;102999.84;5095730;28;20020;-77
2022/08/09 08:25:18;;;;;;;2.10;0.90;;;;;;;37.62;21.36;103006.72;5076867;28;20072;-77
2022/08/09 08:27:43;;;;;;;1.83;0.70;;;;;;;38.32;21.06;103001.09;5082523;28;20020;-76
2022/08/09 08:30:17;;;;;;;1.42;0.77;;;;;;;39.10;20.67;102999.94;5077269;28;20521;-77
2022/08/09 08:32:43;;;;;;;1.55;0.80;;;;;;;38.15;20.54;102999.97;5106555;28;20030;-77
2022/08/09 08:35:08;;;;;;;1.10;0.60;;;;;;;38.92;20.67;102992.56;5080774;28;20383;-76
2022/08/09 08:37:34;;;;;;;1.48;0.63;;;;;;;39.28;19.82;102994.53;5100890;28;20139;-76
2022/08/09 08:39:59;;;;;;;1.88;0.65;;;;;;;38.28;21.47;102994.22;5086351;28;20123;-77
2022/08/09 08:42:26;;;;;;;2.17;0.70;;;;;;;38.52;20.87;102999.19;5080429;28;20045;-76
2022/08/09 08:44:56;;;;;;;1.98;0.80;;;;;;;38.76;20.84;102998.69;5099047;28;20036;-77
2022/08/09 08:47:22;;;;;;;1.85;0.98;;;;;;;38.01;21.63;103002.13;5077754;28;20505;-77
2022/08/09 08:49:48;;;;;;;1.55;0.68;;;;;;;36.16;23.25;103005.09;5078651;28;20032;-76
2022/08/09 08:52:15;;;;;;;1.60;0.70;;;;;;;37.44;21.57;103001.09;5076106;28;20066;-76
2022/08/09 08:54:40;;;;;;;1.45;0.68;;;;;;;37.59;21.90;102996.97;5079139;28;20517;-77
2022/08/09 08:57:08;;;;;;;1.65;0.70;;;;;;;38.55;19.98;102996.13;5096930;28;20027;-75
2022/08/09 08:59:33;;;;;;;2.42;0.50;;;;;;;38.96;20.05;102984.91;5076033;28;20032;-76
2022/08/09 09:01:59;;;;;;;1.58;0.60;;;;;;;37.32;21.74;102997.66;5076227;28;20016;-75
2022/08/09 09:04:28;;;;;;;1.05;0.63;;;;;;;38.63;21.78;102993.53;5076120;28;20051;-76
2022/08/09 09:06:57;;;;;;;5.25;0.82;;;;;;;38.86;20.87;102998.63;5075602;28;20110;-76
2022/08/09 09:09:24;;;;;;;2.22;0.57;;;;;;;38.10;22.19;103007.72;5094263;28;20028;-77
2022/08/09 09:11:50;;;;;;;5.13;0.88;;;;;;;37.90;22.58;102999.56;5076612;28;20057;-77
2022/08/09 09:14:23;;;;;;;3.38;0.70;;;;;;;39.51;21.34;102997.66;5075221;28;20099;-76
2022/08/09 09:16:49;;;;;;;1.58;0.70;;;;;;;40.16;20.23;102997.41;5094940;28;20020;-76
2022/08/09 09:19:14;;;;;;;2.15;0.68;;;;;;;40.49;19.42;103003.13;5110351;28;20035;-77
2022/08/09 09:21:59;;;;;;;1.63;0.52;;;;;;;39.97;19.13;103003.91;5095899;28;20019;-77
2022/08/09 09:24:36;;;;;;;1.02;0.70;;;;;;;41.27;18.94;103011.28;5088490;28;20031;-78
2022/08/09 09:27:03;;;;;;;1.30;0.60;;;;;;;39.74;19.68;103005.44;5101383;28;20024;-77
2022/08/09 09:29:40;;;;;;;0.70;0.70;;;;;;;39.39;19.27;103009.84;5110217;28;20027;-77
2022/08/09 09:32:06;;;;;;;1.83;0.60;;;;;;;39.89;19.90;103011.19;5109004;28;20032;-77
2022/08/09 09:34:32;;;;;;;1.45;0.60;;;;;;;38.66;20.47;103003.28;5086173;28;20084;-76
2022/08/09 09:36:59;;;;;;;1.88;0.77;;;;;;;38.67;20.29;103005.88;5095141;28;20081;-77
2022/08/09 09:39:27;;;;;;;1.02;0.40;;;;;;;38.99;19.63;103007.34;5077831;28;20032;-77
2022/08/09 09:41:54;;;;;;;3.13;0.90;;;;;;;36.70;21.21;103005.00;5075941;28;20028;-76
2022/08/09 09:44:27;;;;;;;2.03;0.70;;;;;;;38.11;20.84;103004.84;5076081;28;20097;-77
2022/08/09 09:47:07;;;;;;;1.10;0.73;;;;;;;37.69;21.65;103000.56;5086148;28;20395;-78
2022/08/09 09:49:32;;;;;;;1.38;0.70;;;;;;;38.10;20.91;103003.16;5075969;28;20020;-78
2022/08/09 09:52:01;;;;;;;1.38;0.60;;;;;;;37.83;21.47;103007.47;5089374;28;20084;-79
2022/08/09 09:54:42;;;;;;;1.58;0.57;;;;;;;36.73;22.09;102999.31;5091682;28;20028;-78
2022/08/09 09:57:19;;;;;;;3.30;0.60;;;;;;;36.09;23.56;103001.19;5080963;28;20487;-78
2022/08/09 09:59:46;;;;;;;3.00;0.93;;;;;;;37.87;21.32;103008.06;5097122;28;20510;-78
2022/08/09 10:02:13;;;;;;;3.60;0.80;;;;;;;36.97;22.36;102999.84;5110415;28;20059;-78
2022/08/09 10:04:39;;;;;;;1.20;0.63;;;;;;;35.42;23.31;103005.88;5112737;28;20031;-77
2022/08/09 10:07:20;;;;;;;1.55;0.60;;;;;;;35.45;23.59;103005.66;5087624;28;20041;-78
2022/08/09 10:09:47;;;;;;;4.97;0.80;;;;;;;36.88;23.09;102987.06;5076909;28;20081;-78
2022/08/09 10:12:25;;;;;;;1.85;0.63;;;;;;;36.26;22.50;102995.16;5084174;28;20039;-78
2022/08/09 10:14:51;;;;;;;1.42;0.65;;;;;;;35.69;24.12;102996.41;5110032;28;20063;-78
2022/08/09 10:17:18;;;;;;;2.88;0.82;;;;;;;36.71;23.21;102983.06;5084879;28;20023;-78
2022/08/09 10:19:44;;;;;;;0.98;0.68;;;;;;;36.14;22.82;102985.34;5093120;28;20027;-78
2022/08/09 10:22:09;;;;;;;0.98;0.50;;;;;;;34.88;24.10;102983.94;5089911;28;20105;-78
2022/08/09 10:24:35;;;;;;;0.93;0.60;;;;;;;35.29;24.45;102985.13;5079560;28;20120;-78
2022/08/09 10:27:01;;;;;;;1.88;0.80;;;;;;;35.97;23.90;102979.50;5081037;28;20024;-78
2022/08/09 10:29:28;;;;;;;2.05;0.80;;;;;;;34.18;25.27;102985.81;5098286;28;20039;-77
2022/08/09 10:31:53;;;;;;;1.98;0.98;;;;;;;33.56;26.07;102982.34;5094068;28;20030;-78
2022/08/09 10:34:20;;;;;;;2.75;0.73;;;;;;;34.76;24.92;102983.06;5112935;28;20035;-78
2022/08/09 10:36:48;;;;;;;1.40;0.70;;;;;;;34.34;25.90;102981.94;5077489;28;20032;-78
2022/08/09 10:39:17;;;;;;;2.85;0.70;;;;;;;35.43;23.81;102970.41;5092592;28;20024;-78
2022/08/09 10:41:43;;;;;;;2.47;0.80;;;;;;;34.99;24.22;102977.66;5113195;28;20077;-78
2022/08/09 10:44:09;;;;;;;0.98;0.73;;;;;;;35.27;23.56;102976.25;5092552;28;20114;-78
2022/08/09 10:46:56;;;;;;;1.95;0.70;;;;;;;34.76;24.87;102977.66;5108472;28;20072;-78
2022/08/09 10:49:45;;;;;;;2.17;0.70;;;;;;;34.55;25.71;102984.78;5093201;28;20479;-77
2022/08/09 10:52:22;;;;;;;2.55;0.80;;;;;;;35.56;24.09;102970.25;5093088;28;20022;-78
2022/08/09 10:54:49;;;;;;;3.33;0.60;;;;;;;34.70;24.86;102977.28;5091468;28;20061;-79
2022/08/09 10:57:15;;;;;;;1.25;0.68;;;;;;;35.09;24.57;102978.63;5074547;28;20043;-78
2022/08/09 10:59:43;;;;;;;1.77;0.90;;;;;;;34.55;24.86;102972.06;5081937;28;20070;-77
2022/08/09 11:02:14;;;;;;;1.88;0.63;;;;;;;34.77;23.86;102976.63;5095609;28;20131;-78
2022/08/09 11:04:40;;;;;;;5.60;0.90;;;;;;;34.21;24.51;102980.16;5098855;28;20024;-77
2022/08/09 11:07:05;;;;;;;2.42;0.82;;;;;;;33.91;25.28;102969.81;5082880;28;20773;-77
2022/08/09 11:09:36;;;;;;;1.58;0.73;;;;;;;35.07;24.24;102968.88;5076032;28;20031;-78
2022/08/09 11:12:11;;;;;;;0.50;0.50;;;;;;;35.60;23.90;102973.56;5074652;28;20511;-78
2022/08/09 11:14:40;;;;;;;2.35;0.82;;;;;;;34.73;24.24;102966.16;5112480;28;20050;-77
2022/08/09 11:17:14;;;;;;;1.65;0.65;;;;;;;35.19;24.06;102962.44;5109986;28;20076;-76
2022/08/09 11:19:49;;;;;;;3.97;0.90;;;;;;;35.38;23.87;102960.91;5075411;28;20060;-78
2022/08/09 11:22:15;;;;;;;1.80;0.70;;;;;;;35.93;23.15;102961.72;5088120;28;20018;-78
2022/08/09 11:25:16;;;;;;;2.70;1.08;;;;;;;35.52;24.11;102952.47;5111249;28;20031;-77
2022/08/09 11:27:46;;;;;;;0.95;0.40;;;;;;;35.69;23.66;102956.47;5091263;28;20472;-78
2022/08/09 11:30:14;;;;;;;1.63;0.70;;;;;;;36.08;23.56;102953.19;5073351;28;20751;-78